Terminal Aerodrome Forecast
Issued by NWS

Home | Current Version | Previous Version | Text Only | Print | Product List | Glossary On
Versions: 1 2 3 4 5 6 7 8 9 10 11 12 13 14 15 16 17 18 19 20 21 22 23 24 25 26 27 28 29 30 31 32 33 34 35 36
000
FTUS45 KGJT 221732
TAFEGE
TAF
KEGE 221732Z 2218/2318 VRB05KT P6SM BKN100
     FM221900 22018G32KT P6SM SCT060 BKN110
     FM230100 21011G20KT P6SM SCT070 BKN130
     FM230200 19006KT P6SM SCT070 BKN130
     FM231400 00000KT P6SM BKN060=

USA.gov is the U.S. government's official web portal to all federal, state and local government web resources and services.